createdAt,value
2018-11-06T00:00:06.872Z,1000.77
2018-11-06T00:00:33.005Z,1000.76
2018-11-06T00:00:59.141Z,1000.76
2018-11-06T00:01:25.295Z,1000.76
2018-11-06T00:01:51.426Z,1000.79
2018-11-06T00:02:17.560Z,1000.82
2018-11-06T00:02:43.683Z,1000.81
2018-11-06T00:03:09.814Z,1000.85
2018-11-06T00:03:35.940Z,1000.84
2018-11-06T00:04:02.075Z,1000.78
2018-11-06T00:04:28.234Z,1000.84
2018-11-06T00:04:54.367Z,1000.84
2018-11-06T00:05:20.493Z,1000.81
2018-11-06T00:05:46.627Z,1000.81
2018-11-06T00:06:12.754Z,1000.82
2018-11-06T00:06:38.888Z,1000.79
2018-11-06T00:07:05.023Z,1000.8
2018-11-06T00:07:31.161Z,1000.78
2018-11-06T00:07:57.291Z,1000.75
2018-11-06T00:08:23.428Z,1000.77
2018-11-06T00:08:49.560Z,1000.73
2018-11-06T00:09:15.806Z,1000.75
2018-11-06T00:09:41.821Z,1000.75
2018-11-06T00:10:07.976Z,1000.75
2018-11-06T00:10:34.134Z,1000.72
2018-11-06T00:11:00.291Z,1000.72
2018-11-06T00:11:26.423Z,1000.75
2018-11-06T00:11:52.579Z,1000.75
2018-11-06T00:12:18.715Z,1000.75
2018-11-06T00:12:44.851Z,1000.73
2018-11-06T00:13:11.042Z,1000.8
2018-11-06T00:13:37.179Z,1000.79
2018-11-06T00:14:03.323Z,1000.8
2018-11-06T00:14:29.463Z,1000.79
2018-11-06T00:14:55.599Z,1000.79
2018-11-06T00:15:21.730Z,1000.75
2018-11-06T00:15:47.862Z,1000.79
2018-11-06T00:16:14.013Z,1000.79
2018-11-06T00:16:40.142Z,1000.78
2018-11-06T00:17:06.299Z,1000.78
2018-11-06T00:17:32.434Z,1000.76
2018-11-06T00:17:58.587Z,1000.82
2018-11-06T00:18:24.722Z,1000.79
2018-11-06T00:18:50.849Z,1000.88
2018-11-06T00:19:16.989Z,1000.84
2018-11-06T00:19:43.116Z,1000.86
2018-11-06T00:20:09.246Z,1000.85
2018-11-06T00:20:35.382Z,1000.84
2018-11-06T00:21:01.547Z,1000.86
2018-11-06T00:21:27.677Z,1000.85
2018-11-06T00:21:53.845Z,1000.87
2018-11-06T00:22:19.996Z,1000.85
2018-11-06T00:22:46.123Z,1000.88
2018-11-06T00:23:12.258Z,1000.84
2018-11-06T00:23:38.441Z,1000.86
2018-11-06T00:24:04.598Z,1000.83
2018-11-06T00:24:30.733Z,1000.83
2018-11-06T00:24:56.865Z,1000.84
2018-11-06T00:25:23.020Z,1000.88
2018-11-06T00:25:49.178Z,1000.9
2018-11-06T00:26:15.305Z,1000.89
2018-11-06T00:26:41.442Z,1000.89
2018-11-06T00:27:07.579Z,1000.91
2018-11-06T00:27:33.707Z,1000.92
2018-11-06T00:27:59.835Z,1000.94
2018-11-06T00:28:25.970Z,1000.91
2018-11-06T00:28:52.133Z,1000.93
2018-11-06T00:29:18.265Z,1000.92
2018-11-06T00:29:44.405Z,1000.93
2018-11-06T00:30:10.541Z,1000.9
2018-11-06T00:30:36.678Z,1000.93
2018-11-06T00:31:02.831Z,1000.91
2018-11-06T00:31:28.990Z,1000.9
2018-11-06T00:31:55.118Z,1000.91
2018-11-06T00:32:21.250Z,1000.91
2018-11-06T00:32:47.403Z,1000.89
2018-11-06T00:33:13.555Z,1000.88
2018-11-06T00:33:39.692Z,1000.89
2018-11-06T00:34:05.895Z,1000.92
2018-11-06T00:34:31.974Z,1000.92
2018-11-06T00:34:58.101Z,1000.93
2018-11-06T00:35:24.233Z,1000.9
2018-11-06T00:35:50.366Z,1000.93
2018-11-06T00:36:16.535Z,1000.87
2018-11-06T00:36:42.665Z,1000.9
2018-11-06T00:37:08.809Z,1000.89
2018-11-06T00:37:34.927Z,1000.85
2018-11-06T00:38:01.060Z,1000.84
2018-11-06T00:38:27.210Z,1000.87
2018-11-06T00:38:53.342Z,1000.85
2018-11-06T00:39:19.472Z,1000.88
2018-11-06T00:39:45.603Z,1000.85
2018-11-06T00:40:11.734Z,1000.86
2018-11-06T00:40:37.871Z,1000.88
2018-11-06T00:41:04.005Z,1000.86
2018-11-06T00:41:30.135Z,1000.9
2018-11-06T00:41:56.264Z,1000.87
2018-11-06T00:42:22.396Z,1000.88
2018-11-06T00:42:48.530Z,1000.86
2018-11-06T00:43:14.663Z,1000.85
2018-11-06T00:43:40.796Z,1000.89
2018-11-06T00:44:06.928Z,1000.88
2018-11-06T00:44:33.063Z,1000.88
2018-11-06T00:44:59.192Z,1000.91
2018-11-06T00:45:25.323Z,1000.91
2018-11-06T00:45:51.456Z,1000.92
2018-11-06T00:46:17.607Z,1000.95
2018-11-06T00:46:43.738Z,1000.91
2018-11-06T00:47:09.872Z,1000.95
2018-11-06T00:47:36.012Z,1000.97
2018-11-06T00:48:02.157Z,1000.96
2018-11-06T00:48:28.287Z,1000.95
2018-11-06T00:48:54.417Z,1000.94
2018-11-06T00:49:20.551Z,1000.93
2018-11-06T00:49:46.682Z,1000.91
2018-11-06T00:50:12.818Z,1000.91
2018-11-06T00:50:38.953Z,1000.91
2018-11-06T00:51:05.107Z,1000.92
2018-11-06T00:51:31.229Z,1000.89
2018-11-06T00:51:57.376Z,1000.86
2018-11-06T00:52:23.527Z,1000.89
2018-11-06T00:52:49.677Z,1000.86
2018-11-06T00:53:15.818Z,1000.92
2018-11-06T00:53:41.953Z,1000.9
2018-11-06T00:54:08.097Z,1000.92
2018-11-06T00:54:34.248Z,1000.91
2018-11-06T00:55:00.380Z,1000.83
2018-11-06T00:55:26.537Z,1000.88
2018-11-06T00:55:52.674Z,1000.87
2018-11-06T00:56:18.798Z,1000.86
2018-11-06T00:56:44.927Z,1000.88
2018-11-06T00:57:11.066Z,1000.86
2018-11-06T00:57:37.231Z,1000.88
2018-11-06T00:58:03.364Z,1000.87
2018-11-06T00:58:29.521Z,1000.91
2018-11-06T00:58:55.683Z,1000.92
2018-11-06T00:59:22.077Z,1000.89
2018-11-06T00:59:48.203Z,1000.85
2018-11-06T01:00:14.492Z,1000.87
2018-11-06T01:00:40.645Z,1000.86
2018-11-06T01:01:06.777Z,1000.83
2018-11-06T01:01:32.912Z,1000.8
2018-11-06T01:01:59.043Z,1000.8
2018-11-06T01:02:25.170Z,1000.77
2018-11-06T01:02:51.307Z,1000.75
2018-11-06T01:03:17.465Z,1000.78
2018-11-06T01:03:43.601Z,1000.76
2018-11-06T01:04:09.730Z,1000.74
2018-11-06T01:04:35.881Z,1000.75
2018-11-06T01:05:02.013Z,1000.74
2018-11-06T01:05:28.165Z,1000.75
2018-11-06T01:05:54.323Z,1000.75
2018-11-06T01:06:20.477Z,1000.78
2018-11-06T01:06:46.662Z,1000.76
2018-11-06T01:07:12.863Z,1000.78
2018-11-06T01:07:38.995Z,1000.83
2018-11-06T01:08:05.133Z,1000.81
2018-11-06T01:08:31.287Z,1000.85
2018-11-06T01:08:57.427Z,1000.84
2018-11-06T01:09:23.556Z,1000.9
2018-11-06T01:09:49.682Z,1000.9
2018-11-06T01:10:15.815Z,1000.92
2018-11-06T01:10:41.949Z,1000.93
2018-11-06T01:11:08.086Z,1000.95
2018-11-06T01:11:34.221Z,1000.96
2018-11-06T01:12:00.364Z,1000.97
2018-11-06T01:12:26.500Z,1000.98
2018-11-06T01:12:52.649Z,1001
2018-11-06T01:13:18.804Z,1000.97
2018-11-06T01:13:44.939Z,1000.99
2018-11-06T01:14:11.067Z,1000.99
2018-11-06T01:14:37.205Z,1000.99
2018-11-06T01:15:03.333Z,1001
2018-11-06T01:15:29.470Z,1001
2018-11-06T01:15:55.603Z,1001.01
2018-11-06T01:16:21.730Z,1000.99
2018-11-06T01:16:47.867Z,1000.99
2018-11-06T01:17:13.997Z,1000.97
2018-11-06T01:17:40.120Z,1000.99
2018-11-06T01:18:06.258Z,1001.01
2018-11-06T01:18:32.392Z,1000.99
2018-11-06T01:18:58.552Z,1001
2018-11-06T01:19:24.680Z,1001.01
2018-11-06T01:19:50.817Z,1001
2018-11-06T01:20:16.955Z,1001.01
2018-11-06T01:20:43.139Z,1000.97
2018-11-06T01:21:09.278Z,1001.01
2018-11-06T01:21:35.432Z,1001
2018-11-06T01:22:01.601Z,1001.01
2018-11-06T01:22:27.738Z,1001.04
2018-11-06T01:22:53.895Z,1001.01
2018-11-06T01:23:20.052Z,1001.01
2018-11-06T01:23:46.217Z,1001
2018-11-06T01:24:12.346Z,1001.02
2018-11-06T01:24:38.502Z,1001.01
2018-11-06T01:25:04.665Z,1001.06
2018-11-06T01:25:30.838Z,1001
2018-11-06T01:25:56.967Z,1001.03
2018-11-06T01:26:23.116Z,1001
2018-11-06T01:26:49.245Z,1001.01
2018-11-06T01:27:15.396Z,1000.98
2018-11-06T01:27:41.539Z,1001
2018-11-06T01:28:07.680Z,1000.94
2018-11-06T01:28:33.811Z,1000.96
2018-11-06T01:28:59.944Z,1000.93
2018-11-06T01:29:26.076Z,1000.94
2018-11-06T01:29:52.210Z,1000.92
2018-11-06T01:30:18.342Z,1000.94
2018-11-06T01:30:44.476Z,1000.93
2018-11-06T01:31:10.603Z,1000.98
2018-11-06T01:31:36.765Z,1000.94
2018-11-06T01:32:02.916Z,1000.98
2018-11-06T01:32:29.049Z,1001.03
2018-11-06T01:32:55.181Z,1001.03
2018-11-06T01:33:21.344Z,1001.05
2018-11-06T01:33:47.495Z,1001.03
2018-11-06T01:34:13.633Z,1001.04
2018-11-06T01:34:39.760Z,1001.06
2018-11-06T01:35:05.917Z,1001.08
2018-11-06T01:35:32.042Z,1001.1
2018-11-06T01:35:58.201Z,1001.05
2018-11-06T01:36:24.335Z,1001.04
2018-11-06T01:36:50.495Z,1001.06
2018-11-06T01:37:16.628Z,1001.08
2018-11-06T01:37:42.782Z,1001.03
2018-11-06T01:38:08.914Z,1001.04
2018-11-06T01:38:35.045Z,1001.02
2018-11-06T01:39:01.188Z,1001.05
2018-11-06T01:39:27.318Z,1001.05
2018-11-06T01:39:53.475Z,1001.04
2018-11-06T01:40:19.611Z,1001.05
2018-11-06T01:40:45.747Z,1001.01
2018-11-06T01:41:11.881Z,1001.02
2018-11-06T01:41:38.006Z,1001
2018-11-06T01:42:04.138Z,1000.98
2018-11-06T01:42:30.270Z,1000.99
2018-11-06T01:42:56.398Z,1001
2018-11-06T01:43:22.536Z,1000.98
2018-11-06T01:43:48.671Z,1000.96
2018-11-06T01:44:14.801Z,1000.97
2018-11-06T01:44:40.963Z,1000.99
2018-11-06T01:45:07.119Z,1000.96
2018-11-06T01:45:33.257Z,1000.94
2018-11-06T01:45:59.390Z,1001
2018-11-06T01:46:25.555Z,1001
2018-11-06T01:46:51.683Z,1000.97
2018-11-06T01:47:17.836Z,1001
2018-11-06T01:47:43.993Z,1001.01
2018-11-06T01:48:10.124Z,1000.99
2018-11-06T01:48:36.254Z,1000.95
2018-11-06T01:49:02.389Z,1000.93
2018-11-06T01:49:28.568Z,1000.96
2018-11-06T01:49:54.702Z,1000.91
2018-11-06T01:50:20.835Z,1000.92
2018-11-06T01:50:46.965Z,1000.91
2018-11-06T01:51:13.102Z,1000.86
2018-11-06T01:51:39.236Z,1000.89
2018-11-06T01:52:05.364Z,1000.89
2018-11-06T01:52:31.496Z,1000.91
2018-11-06T01:52:57.628Z,1000.96
2018-11-06T01:53:23.761Z,1000.92
2018-11-06T01:53:49.893Z,1000.93
2018-11-06T01:54:16.027Z,1000.91
2018-11-06T01:54:42.179Z,1000.89
2018-11-06T01:55:08.319Z,1000.91
2018-11-06T01:55:34.444Z,1000.9
2018-11-06T01:56:00.602Z,1000.92
2018-11-06T01:56:26.728Z,1000.91
2018-11-06T01:56:52.857Z,1000.89
2018-11-06T01:57:18.988Z,1000.89
2018-11-06T01:57:45.171Z,1000.91
2018-11-06T01:58:11.326Z,1000.91
2018-11-06T01:58:37.466Z,1000.91
2018-11-06T01:59:03.618Z,1000.92
2018-11-06T01:59:29.749Z,1000.88
2018-11-06T01:59:55.877Z,1000.9
2018-11-06T02:00:22.008Z,1000.91
2018-11-06T02:00:48.141Z,1000.88
2018-11-06T02:01:14.270Z,1000.91
2018-11-06T02:01:40.407Z,1000.93
2018-11-06T02:02:06.527Z,1000.9
2018-11-06T02:02:32.660Z,1000.9
2018-11-06T02:02:58.792Z,1000.9
2018-11-06T02:03:24.957Z,1000.87
2018-11-06T02:03:51.109Z,1000.84
2018-11-06T02:04:17.240Z,1000.9
2018-11-06T02:04:43.394Z,1000.88
2018-11-06T02:05:09.574Z,1000.88
2018-11-06T02:05:35.700Z,1000.87
2018-11-06T02:06:01.857Z,1000.9
2018-11-06T02:06:27.983Z,1000.86
2018-11-06T02:06:54.178Z,1000.82
2018-11-06T02:07:20.310Z,1000.85
2018-11-06T02:07:46.441Z,1000.88
2018-11-06T02:08:12.577Z,1000.85
2018-11-06T02:08:38.712Z,1000.86
2018-11-06T02:09:04.866Z,1000.86
2018-11-06T02:09:31.040Z,1000.84
2018-11-06T02:09:57.175Z,1000.86
2018-11-06T02:10:23.311Z,1000.9
2018-11-06T02:10:49.460Z,1000.89
2018-11-06T02:11:15.599Z,1000.92
2018-11-06T02:11:41.733Z,1000.92
2018-11-06T02:12:07.863Z,1000.9
2018-11-06T02:12:34.022Z,1000.92
2018-11-06T02:13:00.159Z,1000.92
2018-11-06T02:13:26.321Z,1000.95
2018-11-06T02:13:52.472Z,1000.9
2018-11-06T02:14:18.618Z,1000.91
2018-11-06T02:14:44.745Z,1000.9
2018-11-06T02:15:10.876Z,1000.9
2018-11-06T02:15:37.006Z,1000.92
2018-11-06T02:16:03.159Z,1000.9
2018-11-06T02:16:29.295Z,1000.89
2018-11-06T02:16:55.429Z,1000.89
2018-11-06T02:17:21.558Z,1000.94
2018-11-06T02:17:47.700Z,1000.91
2018-11-06T02:18:13.826Z,1000.87
2018-11-06T02:18:39.951Z,1000.9
2018-11-06T02:19:06.088Z,1000.88
2018-11-06T02:19:32.227Z,1000.89
2018-11-06T02:19:58.397Z,1000.88
2018-11-06T02:20:24.556Z,1000.86
2018-11-06T02:20:50.689Z,1000.85
2018-11-06T02:21:16.838Z,1000.88
2018-11-06T02:21:42.974Z,1000.86
2018-11-06T02:22:09.103Z,1000.89
2018-11-06T02:22:35.245Z,1000.89
2018-11-06T02:23:01.364Z,1000.9
2018-11-06T02:23:27.495Z,1000.88
2018-11-06T02:23:53.646Z,1000.94
2018-11-06T02:24:19.785Z,1000.91
2018-11-06T02:24:45.940Z,1000.89
2018-11-06T02:25:12.093Z,1000.89
2018-11-06T02:25:38.233Z,1000.89
2018-11-06T02:26:04.361Z,1000.9
2018-11-06T02:26:30.496Z,1000.9
2018-11-06T02:26:56.624Z,1000.84
2018-11-06T02:27:22.762Z,1000.9
2018-11-06T02:27:48.886Z,1000.87
2018-11-06T02:28:15.020Z,1000.89
2018-11-06T02:28:41.153Z,1000.87
2018-11-06T02:29:07.287Z,1000.89
2018-11-06T02:29:33.442Z,1000.88
2018-11-06T02:29:59.575Z,1000.89
2018-11-06T02:30:25.705Z,1000.89
2018-11-06T02:30:51.850Z,1000.9
2018-11-06T02:31:18.022Z,1000.84
2018-11-06T02:31:44.173Z,1000.87
2018-11-06T02:32:10.362Z,1000.87
2018-11-06T02:32:36.596Z,1000.9
2018-11-06T02:33:02.614Z,1000.89
2018-11-06T02:33:28.770Z,1000.92
2018-11-06T02:33:54.903Z,1000.9
2018-11-06T02:34:21.054Z,1000.91
2018-11-06T02:34:47.192Z,1000.91
2018-11-06T02:35:13.325Z,1000.94
2018-11-06T02:35:39.483Z,1000.94
2018-11-06T02:36:05.643Z,1000.95
2018-11-06T02:36:31.764Z,1000.96
2018-11-06T02:36:57.921Z,1000.98
2018-11-06T02:37:24.057Z,1000.98
2018-11-06T02:37:50.234Z,1000.99
2018-11-06T02:38:16.388Z,1001
2018-11-06T02:38:42.571Z,1001
2018-11-06T02:39:08.721Z,1001.01
2018-11-06T02:39:34.888Z,1001.02
2018-11-06T02:40:01.038Z,1001
2018-11-06T02:40:27.171Z,1001.01
2018-11-06T02:40:53.307Z,1000.99
2018-11-06T02:41:19.484Z,1001.02
2018-11-06T02:41:45.641Z,1000.99
2018-11-06T02:42:11.820Z,1001
2018-11-06T02:42:37.955Z,1001
2018-11-06T02:43:04.124Z,1000.98
2018-11-06T02:43:30.259Z,1000.98
2018-11-06T02:43:56.397Z,1000.98
2018-11-06T02:44:22.547Z,1001
2018-11-06T02:44:48.706Z,1000.97
2018-11-06T02:45:14.882Z,1001.01
2018-11-06T02:45:41.002Z,1000.98
2018-11-06T02:46:07.142Z,1000.96
2018-11-06T02:46:33.271Z,1000.97
2018-11-06T02:46:59.396Z,1000.97
2018-11-06T02:47:25.532Z,1000.99
2018-11-06T02:47:51.693Z,1000.9
2018-11-06T02:48:17.852Z,1000.99
2018-11-06T02:48:44.011Z,1000.94
2018-11-06T02:49:10.162Z,1000.98
2018-11-06T02:49:36.296Z,1000.95
2018-11-06T02:50:02.505Z,1000.95
2018-11-06T02:50:28.663Z,1000.98
2018-11-06T02:50:54.799Z,1001.01
2018-11-06T02:51:20.927Z,1000.97
2018-11-06T02:51:47.088Z,1000.97
2018-11-06T02:52:13.215Z,1000.96
2018-11-06T02:52:39.372Z,1000.94
2018-11-06T02:53:05.548Z,1000.96
2018-11-06T02:53:31.681Z,1000.97
2018-11-06T02:53:57.869Z,1000.95
2018-11-06T02:54:24.026Z,1000.95
2018-11-06T02:54:50.183Z,1000.96
2018-11-06T02:55:16.335Z,1000.96
2018-11-06T02:55:42.546Z,1000.97
2018-11-06T02:56:08.652Z,1000.94
2018-11-06T02:56:34.796Z,1000.97
2018-11-06T02:57:00.953Z,1000.95
2018-11-06T02:57:27.086Z,1000.94
2018-11-06T02:57:53.221Z,1000.94
2018-11-06T02:58:19.346Z,1000.98
2018-11-06T02:58:45.498Z,1000.98
2018-11-06T02:59:11.626Z,1000.97
2018-11-06T02:59:37.763Z,1000.98
2018-11-06T03:00:03.895Z,1000.96
2018-11-06T03:00:30.046Z,1000.96
2018-11-06T03:00:56.179Z,1000.97
2018-11-06T03:01:22.357Z,1000.93
2018-11-06T03:01:48.524Z,1000.98
2018-11-06T03:02:14.653Z,1000.94
2018-11-06T03:02:40.787Z,1000.95
2018-11-06T03:03:06.913Z,1000.98
2018-11-06T03:03:33.077Z,1000.97
2018-11-06T03:03:59.201Z,1000.94
2018-11-06T03:04:25.340Z,1000.92
2018-11-06T03:04:51.473Z,1000.93
2018-11-06T03:05:17.633Z,1000.93
2018-11-06T03:05:43.782Z,1000.94
2018-11-06T03:06:09.964Z,1000.93
2018-11-06T03:06:36.092Z,1000.96
2018-11-06T03:07:02.255Z,1000.96
2018-11-06T03:07:28.391Z,1000.92
2018-11-06T03:07:54.519Z,1000.92
2018-11-06T03:08:20.701Z,1000.95
2018-11-06T03:08:46.831Z,1000.92
2018-11-06T03:09:12.961Z,1000.92
2018-11-06T03:09:39.120Z,1000.92
2018-11-06T03:10:05.280Z,1000.95
2018-11-06T03:10:31.536Z,1000.95
2018-11-06T03:10:57.619Z,1000.94
2018-11-06T03:11:23.749Z,1000.97
2018-11-06T03:11:49.875Z,1000.93
2018-11-06T03:12:16.004Z,1000.96
2018-11-06T03:12:42.133Z,1000.95
2018-11-06T03:13:08.283Z,1000.95
2018-11-06T03:13:34.417Z,1000.94
2018-11-06T03:14:00.544Z,1000.96
2018-11-06T03:14:26.712Z,1000.97
2018-11-06T03:14:52.875Z,1000.91
2018-11-06T03:15:19.019Z,1000.99
2018-11-06T03:15:45.164Z,1000.95
2018-11-06T03:16:11.356Z,1000.94
2018-11-06T03:16:37.583Z,1000.96
2018-11-06T03:17:03.748Z,1000.98
2018-11-06T03:17:29.858Z,1000.93
2018-11-06T03:17:56.012Z,1000.97
2018-11-06T03:18:22.148Z,1000.96
2018-11-06T03:18:48.304Z,1000.94
2018-11-06T03:19:14.494Z,1000.96
2018-11-06T03:19:40.632Z,1000.96
2018-11-06T03:20:06.797Z,1000.97
2018-11-06T03:20:32.940Z,1001
2018-11-06T03:20:59.072Z,1001.02
2018-11-06T03:21:25.230Z,1001.01
2018-11-06T03:21:51.360Z,1001.01
2018-11-06T03:22:17.508Z,1001.03
2018-11-06T03:22:43.645Z,1001.06
2018-11-06T03:23:09.815Z,1001.04
2018-11-06T03:23:35.973Z,1001.07
2018-11-06T03:24:02.112Z,1001.05
2018-11-06T03:24:28.231Z,1001.08
2018-11-06T03:24:54.368Z,1001.03
2018-11-06T03:25:20.519Z,1001.01
2018-11-06T03:25:46.674Z,1001
2018-11-06T03:26:12.803Z,1001.03
2018-11-06T03:26:38.955Z,1001.03
2018-11-06T03:27:05.292Z,1000.98
2018-11-06T03:27:31.296Z,1001.01
2018-11-06T03:27:57.450Z,1000.98
2018-11-06T03:28:23.625Z,1000.96
2018-11-06T03:28:49.778Z,1001.01
2018-11-06T03:29:15.907Z,1000.99
2018-11-06T03:29:42.061Z,1001.03
2018-11-06T03:30:08.198Z,1001.02
2018-11-06T03:30:34.422Z,1001.03
2018-11-06T03:31:00.592Z,1001.01
2018-11-06T03:31:26.777Z,1001.04
2018-11-06T03:31:52.954Z,1001.02
2018-11-06T03:32:19.108Z,1001.03
2018-11-06T03:32:45.275Z,1001.04
2018-11-06T03:33:11.438Z,1001.05
2018-11-06T03:33:37.613Z,1001.04
2018-11-06T03:34:03.777Z,1001.04
2018-11-06T03:34:29.937Z,1001.03
2018-11-06T03:34:56.068Z,1001.02
2018-11-06T03:35:22.197Z,1001.04
2018-11-06T03:35:48.354Z,1001.06
2018-11-06T03:36:14.484Z,1001.04
2018-11-06T03:36:40.624Z,1001.04
2018-11-06T03:37:06.757Z,1001.02
2018-11-06T03:37:32.908Z,1001.04
2018-11-06T03:37:59.061Z,1001.06
2018-11-06T03:38:25.212Z,1001.04
2018-11-06T03:38:51.368Z,1001.08
2018-11-06T03:39:17.495Z,1001.08
2018-11-06T03:39:43.631Z,1001.03
2018-11-06T03:40:09.763Z,1001.06
2018-11-06T03:40:35.939Z,1001.03
2018-11-06T03:41:02.098Z,1001.04
2018-11-06T03:41:28.291Z,1001.07
2018-11-06T03:41:54.450Z,1001.02
2018-11-06T03:42:20.582Z,1001.02
2018-11-06T03:42:46.722Z,1001
2018-11-06T03:43:12.871Z,1001.03
2018-11-06T03:43:39.011Z,1001.01
2018-11-06T03:44:05.135Z,1000.98
2018-11-06T03:44:31.273Z,1000.97
2018-11-06T03:44:57.403Z,1000.97
2018-11-06T03:45:23.536Z,1000.99
2018-11-06T03:45:49.697Z,1001.01
2018-11-06T03:46:15.874Z,1000.95
2018-11-06T03:46:42.056Z,1000.97
2018-11-06T03:47:08.226Z,1000.98
2018-11-06T03:47:34.363Z,1001.04
2018-11-06T03:48:00.495Z,1001.02
2018-11-06T03:48:26.637Z,1001.02
2018-11-06T03:48:52.765Z,1001.01
2018-11-06T03:49:18.891Z,1001.02
2018-11-06T03:49:45.048Z,1001.02
2018-11-06T03:50:11.172Z,1001
2018-11-06T03:50:37.328Z,1001
2018-11-06T03:51:03.458Z,1001.01
2018-11-06T03:51:29.589Z,1001.01
2018-11-06T03:51:55.726Z,1001.04
2018-11-06T03:52:21.853Z,1001.04
2018-11-06T03:52:48.024Z,1001.02
2018-11-06T03:53:14.209Z,1001.03
2018-11-06T03:53:40.386Z,1001.06
2018-11-06T03:54:06.548Z,1001.03
2018-11-06T03:54:32.710Z,1001
2018-11-06T03:54:58.839Z,1001.02
2018-11-06T03:55:24.968Z,1000.99
2018-11-06T03:55:51.099Z,1001.03
2018-11-06T03:56:17.229Z,1001
2018-11-06T03:56:43.378Z,1001.03
2018-11-06T03:57:09.508Z,1001.01
2018-11-06T03:57:35.661Z,1001.01
2018-11-06T03:58:01.808Z,1001.01
2018-11-06T03:58:27.931Z,1001.03
2018-11-06T03:58:54.061Z,1001.05
2018-11-06T03:59:20.194Z,1001.03
2018-11-06T03:59:46.351Z,1001.01
2018-11-06T04:00:12.547Z,1000.99
2018-11-06T04:00:38.714Z,1000.96
2018-11-06T04:01:04.891Z,1001
2018-11-06T04:01:31.048Z,1000.95
2018-11-06T04:01:57.177Z,1000.98
2018-11-06T04:02:23.334Z,1000.99
2018-11-06T04:02:49.468Z,1000.96
2018-11-06T04:03:15.599Z,1000.95
2018-11-06T04:03:41.765Z,1000.96
2018-11-06T04:04:07.939Z,1000.97
2018-11-06T04:04:34.074Z,1000.97
2018-11-06T04:05:00.196Z,1000.97
2018-11-06T04:05:26.339Z,1000.96
2018-11-06T04:05:52.500Z,1001
2018-11-06T04:06:18.646Z,1001
2018-11-06T04:06:44.830Z,1000.99
2018-11-06T04:07:10.970Z,1001.03
2018-11-06T04:07:37.141Z,1001.03
2018-11-06T04:08:03.287Z,1001.05
2018-11-06T04:08:29.439Z,1001.04
2018-11-06T04:08:55.623Z,1001.09
2018-11-06T04:09:21.757Z,1001.04
2018-11-06T04:09:47.935Z,1001.07
2018-11-06T04:10:14.059Z,1001.06
2018-11-06T04:10:40.194Z,1001.02
2018-11-06T04:11:06.330Z,1001.05
2018-11-06T04:11:32.517Z,1001.05
2018-11-06T04:11:58.656Z,1001.05
2018-11-06T04:12:24.818Z,1000.99
2018-11-06T04:12:50.975Z,1001.08
2018-11-06T04:13:17.108Z,1001.06
2018-11-06T04:13:43.244Z,1001.04
2018-11-06T04:14:09.422Z,1001.06
2018-11-06T04:14:35.556Z,1001.09
2018-11-06T04:15:01.718Z,1001.07
2018-11-06T04:15:27.847Z,1001.07
2018-11-06T04:15:53.976Z,1001.08
2018-11-06T04:16:20.142Z,1001.1
2018-11-06T04:16:46.275Z,1001.08
2018-11-06T04:17:12.426Z,1001.1
2018-11-06T04:17:38.557Z,1001.09
2018-11-06T04:18:04.682Z,1001.08
2018-11-06T04:18:30.816Z,1001.11
2018-11-06T04:18:56.947Z,1001.11
2018-11-06T04:19:23.082Z,1001.13
2018-11-06T04:19:49.264Z,1001.14
2018-11-06T04:20:15.413Z,1001.11
2018-11-06T04:20:41.542Z,1001.11
2018-11-06T04:21:07.698Z,1001.15
2018-11-06T04:21:33.832Z,1001.14
2018-11-06T04:21:59.986Z,1001.15
2018-11-06T04:22:26.113Z,1001.14
2018-11-06T04:22:52.268Z,1001.14
2018-11-06T04:23:18.424Z,1001.14
2018-11-06T04:23:44.565Z,1001.16
2018-11-06T04:24:10.729Z,1001.15
2018-11-06T04:24:36.880Z,1001.15
2018-11-06T04:25:03.001Z,1001.14
2018-11-06T04:25:29.132Z,1001.17
2018-11-06T04:25:55.285Z,1001.16
2018-11-06T04:26:21.452Z,1001.16
2018-11-06T04:26:47.614Z,1001.13
2018-11-06T04:27:13.744Z,1001.11
2018-11-06T04:27:39.944Z,1001.15
2018-11-06T04:28:06.093Z,1001.06
2018-11-06T04:28:32.242Z,1001.1
2018-11-06T04:28:58.376Z,1001.11
2018-11-06T04:29:24.544Z,1001.09
2018-11-06T04:29:50.694Z,1001.08
2018-11-06T04:30:16.855Z,1001.09
2018-11-06T04:30:43.011Z,1001.07
2018-11-06T04:31:09.138Z,1001.07
2018-11-06T04:31:35.271Z,1001.11
2018-11-06T04:32:01.404Z,1001.1
2018-11-06T04:32:27.540Z,1001.13
2018-11-06T04:32:53.700Z,1001.11
2018-11-06T04:33:19.830Z,1001.12
2018-11-06T04:33:46.025Z,1001.16
2018-11-06T04:34:12.178Z,1001.16
2018-11-06T04:34:38.405Z,1001.16
2018-11-06T04:35:04.519Z,1001.14
2018-11-06T04:35:30.639Z,1001.16
2018-11-06T04:35:56.772Z,1001.14
2018-11-06T04:36:22.929Z,1001.16
2018-11-06T04:36:49.132Z,1001.15
2018-11-06T04:37:15.283Z,1001.1
2018-11-06T04:37:41.416Z,1001.1
2018-11-06T04:38:07.592Z,1001.08
2018-11-06T04:38:33.722Z,1001.11
2018-11-06T04:38:59.853Z,1001.11
2018-11-06T04:39:26.005Z,1001.09
2018-11-06T04:39:52.147Z,1001.06
2018-11-06T04:40:18.319Z,1001.06
2018-11-06T04:40:44.459Z,1001.07
2018-11-06T04:41:10.633Z,1001.05
2018-11-06T04:41:36.764Z,1001.05
2018-11-06T04:42:02.959Z,1001.05
2018-11-06T04:42:29.114Z,1001.05
2018-11-06T04:42:55.257Z,1001.07
2018-11-06T04:43:21.421Z,1001.07
2018-11-06T04:43:47.564Z,1001.06
2018-11-06T04:44:13.696Z,1001.08
2018-11-06T04:44:39.830Z,1001.09
2018-11-06T04:45:05.956Z,1001.12
2018-11-06T04:45:32.116Z,1001.12
2018-11-06T04:45:58.251Z,1001.1
2018-11-06T04:46:24.454Z,1001.1
2018-11-06T04:46:50.612Z,1001.13
2018-11-06T04:47:16.795Z,1001.13
2018-11-06T04:47:42.975Z,1001.16
2018-11-06T04:48:09.143Z,1001.16
2018-11-06T04:48:35.302Z,1001.17
2018-11-06T04:49:01.431Z,1001.18
2018-11-06T04:49:28.215Z,1001.17
2018-11-06T04:49:54.363Z,1001.19
2018-11-06T04:50:20.804Z,1001.2
2018-11-06T04:50:46.930Z,1001.2
2018-11-06T04:51:13.122Z,1001.21
2018-11-06T04:51:39.292Z,1001.15
2018-11-06T04:52:05.430Z,1001.17
2018-11-06T04:52:31.563Z,1001.16
2018-11-06T04:52:57.697Z,1001.2
2018-11-06T04:53:23.827Z,1001.15
2018-11-06T04:53:49.957Z,1001.19
2018-11-06T04:54:16.091Z,1001.17
2018-11-06T04:54:42.246Z,1001.15
2018-11-06T04:55:08.379Z,1001.16
2018-11-06T04:55:34.511Z,1001.17
2018-11-06T04:56:00.664Z,1001.15
2018-11-06T04:56:26.796Z,1001.16
2018-11-06T04:56:52.926Z,1001.16
2018-11-06T04:57:19.120Z,1001.15
2018-11-06T04:57:45.259Z,1001.17
2018-11-06T04:58:11.411Z,1001.21
2018-11-06T04:58:37.564Z,1001.21
2018-11-06T04:59:03.716Z,1001.22
2018-11-06T04:59:29.858Z,1001.24
2018-11-06T04:59:55.978Z,1001.26
2018-11-06T05:00:22.114Z,1001.22
2018-11-06T05:00:48.248Z,1001.24
2018-11-06T05:01:14.405Z,1001.17
2018-11-06T05:01:40.531Z,1001.23
2018-11-06T05:02:06.745Z,1001.24
2018-11-06T05:02:32.827Z,1001.23
2018-11-06T05:02:58.957Z,1001.22
2018-11-06T05:03:25.088Z,1001.2
2018-11-06T05:03:51.225Z,1001.16
2018-11-06T05:04:17.351Z,1001.16
2018-11-06T05:04:43.484Z,1001.19
2018-11-06T05:05:09.620Z,1001.2
2018-11-06T05:05:35.752Z,1001.15
2018-11-06T05:06:01.902Z,1001.13
2018-11-06T05:06:28.054Z,1001.15
2018-11-06T05:06:54.255Z,1001.12
2018-11-06T05:07:20.360Z,1001.16
2018-11-06T05:07:46.516Z,1001.14
2018-11-06T05:08:12.660Z,1001.11
2018-11-06T05:08:38.840Z,1001.12
2018-11-06T05:09:04.970Z,1001.11
2018-11-06T05:09:31.113Z,1001.06
2018-11-06T05:09:57.254Z,1001.07
2018-11-06T05:10:23.392Z,1001.06
2018-11-06T05:10:49.521Z,1001.09
2018-11-06T05:11:15.656Z,1001.09
2018-11-06T05:11:41.812Z,1001.08
2018-11-06T05:12:07.980Z,1001.08
2018-11-06T05:12:34.105Z,1001.08
2018-11-06T05:13:00.233Z,1001.06
2018-11-06T05:13:26.368Z,1001.08
2018-11-06T05:13:52.552Z,1001.06
2018-11-06T05:14:18.789Z,1001.04
2018-11-06T05:14:44.793Z,1001.08
2018-11-06T05:15:10.919Z,1001.05
2018-11-06T05:15:37.058Z,1001.04
2018-11-06T05:16:03.190Z,1001.05
2018-11-06T05:16:29.318Z,1001.03
2018-11-06T05:16:55.459Z,1001.02
2018-11-06T05:17:21.636Z,1001.06
2018-11-06T05:17:47.788Z,1001.06
2018-11-06T05:18:13.913Z,1001.03